sensor_id;sensor_type;location;lat;lon;timestamp;temperature;humidity
18287;DHT22;9269;50.838;12.094;2023-03-01T00:01:00;2.20;42.10
18287;DHT22;9269;50.838;12.094;2023-03-01T00:03:29;2.00;41.90
18287;DHT22;9269;50.838;12.094;2023-03-01T00:05:57;2.00;42.20
18287;DHT22;9269;50.838;12.094;2023-03-01T00:08:26;2.10;41.90
18287;DHT22;9269;50.838;12.094;2023-03-01T00:11:04;2.00;42.10
18287;DHT22;9269;50.838;12.094;2023-03-01T00:13:35;2.10;42.30
18287;DHT22;9269;50.838;12.094;2023-03-01T00:16:04;2.00;42.30
18287;DHT22;9269;50.838;12.094;2023-03-01T00:18:33;2.10;42.70
18287;DHT22;9269;50.838;12.094;2023-03-01T00:21:02;1.90;42.80
18287;DHT22;9269;50.838;12.094;2023-03-01T00:23:31;2.00;42.90
18287;DHT22;9269;50.838;12.094;2023-03-01T00:25:59;1.90;42.70
18287;DHT22;9269;50.838;12.094;2023-03-01T00:28:29;2.00;43.20
18287;DHT22;9269;50.838;12.094;2023-03-01T00:31:03;1.90;43.00
18287;DHT22;9269;50.838;12.094;2023-03-01T00:33:32;1.90;43.30
18287;DHT22;9269;50.838;12.094;2023-03-01T00:36:01;2.00;43.60
18287;DHT22;9269;50.838;12.094;2023-03-01T00:38:30;1.90;43.70
18287;DHT22;9269;50.838;12.094;2023-03-01T00:41:03;1.80;43.70
18287;DHT22;9269;50.838;12.094;2023-03-01T00:43:33;1.90;43.60
18287;DHT22;9269;50.838;12.094;2023-03-01T00:46:04;2.10;43.80
18287;DHT22;9269;50.838;12.094;2023-03-01T00:48:33;1.80;43.90
18287;DHT22;9269;50.838;12.094;2023-03-01T00:51:06;1.80;44.00
18287;DHT22;9269;50.838;12.094;2023-03-01T00:53:35;1.90;43.90
18287;DHT22;9269;50.838;12.094;2023-03-01T00:56:05;1.80;43.80
18287;DHT22;9269;50.838;12.094;2023-03-01T00:58:37;2.00;44.00
18287;DHT22;9269;50.838;12.094;2023-03-01T01:01:13;1.90;44.00
18287;DHT22;9269;50.838;12.094;2023-03-01T01:03:46;1.90;43.80
18287;DHT22;9269;50.838;12.094;2023-03-01T01:06:16;1.80;43.70
18287;DHT22;9269;50.838;12.094;2023-03-01T01:08:44;1.80;44.20
18287;DHT22;9269;50.838;12.094;2023-03-01T01:11:13;1.60;44.00
18287;DHT22;9269;50.838;12.094;2023-03-01T01:13:44;1.70;43.60
18287;DHT22;9269;50.838;12.094;2023-03-01T01:16:14;1.60;44.00
18287;DHT22;9269;50.838;12.094;2023-03-01T01:18:43;1.50;44.20
18287;DHT22;9269;50.838;12.094;2023-03-01T01:21:17;1.80;44.00
18287;DHT22;9269;50.838;12.094;2023-03-01T01:23:46;1.70;43.90
18287;DHT22;9269;50.838;12.094;2023-03-01T01:26:17;1.60;43.80
18287;DHT22;9269;50.838;12.094;2023-03-01T01:28:47;1.50;44.00
18287;DHT22;9269;50.838;12.094;2023-03-01T01:31:15;1.50;44.00
18287;DHT22;9269;50.838;12.094;2023-03-01T01:33:44;1.60;43.90
18287;DHT22;9269;50.838;12.094;2023-03-01T01:36:13;1.50;44.00
18287;DHT22;9269;50.838;12.094;2023-03-01T01:38:41;1.40;44.20
18287;DHT22;9269;50.838;12.094;2023-03-01T01:41:11;1.50;43.70
18287;DHT22;9269;50.838;12.094;2023-03-01T01:43:41;1.50;43.70
18287;DHT22;9269;50.838;12.094;2023-03-01T01:46:19;1.40;43.70
18287;DHT22;9269;50.838;12.094;2023-03-01T01:48:53;1.40;43.80
18287;DHT22;9269;50.838;12.094;2023-03-01T01:51:25;1.30;43.60
18287;DHT22;9269;50.838;12.094;2023-03-01T01:53:57;1.40;43.70
18287;DHT22;9269;50.838;12.094;2023-03-01T01:56:28;1.50;43.90
18287;DHT22;9269;50.838;12.094;2023-03-01T01:58:58;1.60;43.50
18287;DHT22;9269;50.838;12.094;2023-03-01T02:01:27;1.30;43.70
18287;DHT22;9269;50.838;12.094;2023-03-01T02:03:57;1.00;44.00
18287;DHT22;9269;50.838;12.094;2023-03-01T02:06:29;1.20;43.60
18287;DHT22;9269;50.838;12.094;2023-03-01T02:09:02;1.30;44.00
18287;DHT22;9269;50.838;12.094;2023-03-01T02:11:32;1.20;43.90
18287;DHT22;9269;50.838;12.094;2023-03-01T02:14:01;1.20;43.30
18287;DHT22;9269;50.838;12.094;2023-03-01T02:16:38;1.20;43.70
18287;DHT22;9269;50.838;12.094;2023-03-01T02:19:07;1.10;43.60
18287;DHT22;9269;50.838;12.094;2023-03-01T02:21:43;1.30;43.90
18287;DHT22;9269;50.838;12.094;2023-03-01T02:24:23;1.20;43.50
18287;DHT22;9269;50.838;12.094;2023-03-01T02:26:57;1.10;43.90
18287;DHT22;9269;50.838;12.094;2023-03-01T02:29:28;1.20;43.80
18287;DHT22;9269;50.838;12.094;2023-03-01T02:31:58;1.20;43.60
18287;DHT22;9269;50.838;12.094;2023-03-01T02:34:31;1.00;43.80
18287;DHT22;9269;50.838;12.094;2023-03-01T02:37:03;1.20;43.90
18287;DHT22;9269;50.838;12.094;2023-03-01T02:39:36;1.10;43.90
18287;DHT22;9269;50.838;12.094;2023-03-01T02:42:11;1.00;44.00
18287;DHT22;9269;50.838;12.094;2023-03-01T02:44:41;1.10;43.90
18287;DHT22;9269;50.838;12.094;2023-03-01T02:47:10;1.10;43.90
18287;DHT22;9269;50.838;12.094;2023-03-01T02:49:38;1.00;43.80
18287;DHT22;9269;50.838;12.094;2023-03-01T02:54:58;1.20;44.20
18287;DHT22;9269;50.838;12.094;2023-03-01T02:57:30;1.00;44.10
18287;DHT22;9269;50.838;12.094;2023-03-01T03:00:04;1.20;44.60
18287;DHT22;9269;50.838;12.094;2023-03-01T03:02:35;1.00;44.60
18287;DHT22;9269;50.838;12.094;2023-03-01T03:05:06;1.10;44.90
18287;DHT22;9269;50.838;12.094;2023-03-01T03:07:36;1.10;44.80
18287;DHT22;9269;50.838;12.094;2023-03-01T03:10:10;1.10;44.70
18287;DHT22;9269;50.838;12.094;2023-03-01T03:12:39;1.10;44.80
18287;DHT22;9269;50.838;12.094;2023-03-01T03:15:11;1.00;44.90
18287;DHT22;9269;50.838;12.094;2023-03-01T03:17:48;1.00;45.20
18287;DHT22;9269;50.838;12.094;2023-03-01T03:20:18;1.10;45.10
18287;DHT22;9269;50.838;12.094;2023-03-01T03:22:48;1.10;45.30
18287;DHT22;9269;50.838;12.094;2023-03-01T03:25:17;0.90;45.20
18287;DHT22;9269;50.838;12.094;2023-03-01T03:27:47;1.00;45.50
18287;DHT22;9269;50.838;12.094;2023-03-01T03:30:18;0.80;45.60
18287;DHT22;9269;50.838;12.094;2023-03-01T03:32:48;0.90;45.60
18287;DHT22;9269;50.838;12.094;2023-03-01T03:35:25;1.10;45.80
18287;DHT22;9269;50.838;12.094;2023-03-01T03:37:53;1.10;45.60
18287;DHT22;9269;50.838;12.094;2023-03-01T03:40:33;1.00;45.80
18287;DHT22;9269;50.838;12.094;2023-03-01T03:43:02;1.00;45.90
18287;DHT22;9269;50.838;12.094;2023-03-01T03:45:32;0.90;45.70
18287;DHT22;9269;50.838;12.094;2023-03-01T03:48:04;0.90;45.90
18287;DHT22;9269;50.838;12.094;2023-03-01T03:50:33;0.80;45.90
18287;DHT22;9269;50.838;12.094;2023-03-01T03:53:04;0.90;46.10
18287;DHT22;9269;50.838;12.094;2023-03-01T03:55:33;0.80;46.20
18287;DHT22;9269;50.838;12.094;2023-03-01T03:58:09;1.00;46.00
18287;DHT22;9269;50.838;12.094;2023-03-01T04:00:41;0.80;45.50
18287;DHT22;9269;50.838;12.094;2023-03-01T04:03:11;0.60;45.60
18287;DHT22;9269;50.838;12.094;2023-03-01T04:05:44;0.90;45.50
18287;DHT22;9269;50.838;12.094;2023-03-01T04:08:12;0.80;45.30
18287;DHT22;9269;50.838;12.094;2023-03-01T04:10:42;0.60;45.30
18287;DHT22;9269;50.838;12.094;2023-03-01T04:13:14;0.70;44.90
18287;DHT22;9269;50.838;12.094;2023-03-01T04:15:44;0.80;44.70
18287;DHT22;9269;50.838;12.094;2023-03-01T04:18:14;0.60;45.00
18287;DHT22;9269;50.838;12.094;2023-03-01T04:20:43;0.60;44.70
18287;DHT22;9269;50.838;12.094;2023-03-01T04:23:13;0.60;44.90
18287;DHT22;9269;50.838;12.094;2023-03-01T04:25:46;0.80;44.70
18287;DHT22;9269;50.838;12.094;2023-03-01T04:28:16;0.80;45.00
18287;DHT22;9269;50.838;12.094;2023-03-01T04:30:46;0.50;44.90
18287;DHT22;9269;50.838;12.094;2023-03-01T04:33:17;0.50;44.70
18287;DHT22;9269;50.838;12.094;2023-03-01T04:35:45;0.50;44.90
18287;DHT22;9269;50.838;12.094;2023-03-01T04:38:16;0.60;45.20
18287;DHT22;9269;50.838;12.094;2023-03-01T04:40:45;0.40;45.00
18287;DHT22;9269;50.838;12.094;2023-03-01T04:43:16;0.60;44.80
18287;DHT22;9269;50.838;12.094;2023-03-01T04:45:46;0.60;44.70
18287;DHT22;9269;50.838;12.094;2023-03-01T04:48:14;0.60;44.80
18287;DHT22;9269;50.838;12.094;2023-03-01T04:50:43;0.50;45.10
18287;DHT22;9269;50.838;12.094;2023-03-01T04:53:11;0.40;45.50
18287;DHT22;9269;50.838;12.094;2023-03-01T04:55:39;0.50;44.90
18287;DHT22;9269;50.838;12.094;2023-03-01T04:58:08;0.50;45.30
18287;DHT22;9269;50.838;12.094;2023-03-01T05:00:36;0.50;45.60
18287;DHT22;9269;50.838;12.094;2023-03-01T05:03:06;0.60;45.50
18287;DHT22;9269;50.838;12.094;2023-03-01T05:05:36;0.40;45.30
18287;DHT22;9269;50.838;12.094;2023-03-01T05:08:06;0.50;45.60
18287;DHT22;9269;50.838;12.094;2023-03-01T05:10:35;0.40;45.30
18287;DHT22;9269;50.838;12.094;2023-03-01T05:13:05;0.20;45.50
18287;DHT22;9269;50.838;12.094;2023-03-01T05:15:34;0.40;45.40
18287;DHT22;9269;50.838;12.094;2023-03-01T05:18:04;0.60;45.30
18287;DHT22;9269;50.838;12.094;2023-03-01T05:20:39;0.20;45.50
18287;DHT22;9269;50.838;12.094;2023-03-01T05:23:08;0.20;45.50
18287;DHT22;9269;50.838;12.094;2023-03-01T05:25:36;0.40;46.00
18287;DHT22;9269;50.838;12.094;2023-03-01T05:28:11;0.40;45.50
18287;DHT22;9269;50.838;12.094;2023-03-01T05:30:40;0.30;45.50
18287;DHT22;9269;50.838;12.094;2023-03-01T05:33:10;0.40;45.60
18287;DHT22;9269;50.838;12.094;2023-03-01T05:35:45;0.40;45.60
18287;DHT22;9269;50.838;12.094;2023-03-01T05:38:16;0.10;45.30
18287;DHT22;9269;50.838;12.094;2023-03-01T05:40:48;0.30;45.40
18287;DHT22;9269;50.838;12.094;2023-03-01T05:43:16;0.30;45.50
18287;DHT22;9269;50.838;12.094;2023-03-01T05:45:45;0.30;45.30
18287;DHT22;9269;50.838;12.094;2023-03-01T05:48:14;0.30;45.50
18287;DHT22;9269;50.838;12.094;2023-03-01T05:50:44;0.30;45.10
18287;DHT22;9269;50.838;12.094;2023-03-01T05:53:15;0.20;45.70
18287;DHT22;9269;50.838;12.094;2023-03-01T05:55:44;0.00;45.70
18287;DHT22;9269;50.838;12.094;2023-03-01T05:58:15;0.10;45.80
18287;DHT22;9269;50.838;12.094;2023-03-01T06:00:46;0.30;45.90
18287;DHT22;9269;50.838;12.094;2023-03-01T06:03:16;0.20;46.00
18287;DHT22;9269;50.838;12.094;2023-03-01T06:05:46;0.30;45.90
18287;DHT22;9269;50.838;12.094;2023-03-01T06:08:14;0.20;45.60
18287;DHT22;9269;50.838;12.094;2023-03-01T06:10:42;0.20;45.70
18287;DHT22;9269;50.838;12.094;2023-03-01T06:13:11;0.10;45.70
18287;DHT22;9269;50.838;12.094;2023-03-01T06:15:40;0.10;45.70
18287;DHT22;9269;50.838;12.094;2023-03-01T06:18:08;0.00;45.50
18287;DHT22;9269;50.838;12.094;2023-03-01T06:20:37;0.20;45.70
18287;DHT22;9269;50.838;12.094;2023-03-01T06:23:06;0.40;45.90
18287;DHT22;9269;50.838;12.094;2023-03-01T06:25:37;0.00;45.50
18287;DHT22;9269;50.838;12.094;2023-03-01T06:28:05;0.20;45.60
18287;DHT22;9269;50.838;12.094;2023-03-01T06:30:34;0.00;45.90
18287;DHT22;9269;50.838;12.094;2023-03-01T06:33:02;0.10;46.10
18287;DHT22;9269;50.838;12.094;2023-03-01T06:35:31;0.10;45.70
18287;DHT22;9269;50.838;12.094;2023-03-01T06:38:01;0.30;45.80
18287;DHT22;9269;50.838;12.094;2023-03-01T06:40:31;0.30;45.50
18287;DHT22;9269;50.838;12.094;2023-03-01T06:43:02;0.10;45.50
18287;DHT22;9269;50.838;12.094;2023-03-01T06:45:30;0.20;45.60
18287;DHT22;9269;50.838;12.094;2023-03-01T06:48:03;0.20;45.40
18287;DHT22;9269;50.838;12.094;2023-03-01T06:50:32;0.20;45.60
18287;DHT22;9269;50.838;12.094;2023-03-01T06:53:01;0.30;45.70
18287;DHT22;9269;50.838;12.094;2023-03-01T06:55:32;0.20;45.40
18287;DHT22;9269;50.838;12.094;2023-03-01T06:58:02;0.30;45.20
18287;DHT22;9269;50.838;12.094;2023-03-01T07:00:30;0.60;45.40
18287;DHT22;9269;50.838;12.094;2023-03-01T07:03:00;0.50;45.20
18287;DHT22;9269;50.838;12.094;2023-03-01T07:05:30;0.30;45.80
18287;DHT22;9269;50.838;12.094;2023-03-01T07:07:58;0.70;45.70
18287;DHT22;9269;50.838;12.094;2023-03-01T07:10:27;0.50;45.50
18287;DHT22;9269;50.838;12.094;2023-03-01T07:12:57;0.50;45.40
18287;DHT22;9269;50.838;12.094;2023-03-01T07:15:26;0.50;45.40
18287;DHT22;9269;50.838;12.094;2023-03-01T07:17:56;0.50;45.30
18287;DHT22;9269;50.838;12.094;2023-03-01T07:20:26;0.70;45.30
18287;DHT22;9269;50.838;12.094;2023-03-01T07:22:55;0.60;45.40
18287;DHT22;9269;50.838;12.094;2023-03-01T07:25:23;0.70;45.30
18287;DHT22;9269;50.838;12.094;2023-03-01T07:27:52;0.90;45.40
18287;DHT22;9269;50.838;12.094;2023-03-01T07:30:23;0.70;45.10
18287;DHT22;9269;50.838;12.094;2023-03-01T07:32:54;0.90;45.10
18287;DHT22;9269;50.838;12.094;2023-03-01T07:35:23;0.80;45.10
18287;DHT22;9269;50.838;12.094;2023-03-01T07:37:54;1.00;45.20
18287;DHT22;9269;50.838;12.094;2023-03-01T07:40:22;1.20;44.90
18287;DHT22;9269;50.838;12.094;2023-03-01T07:42:55;0.90;44.90
18287;DHT22;9269;50.838;12.094;2023-03-01T07:45:25;1.30;44.90
18287;DHT22;9269;50.838;12.094;2023-03-01T07:47:54;1.50;44.80
18287;DHT22;9269;50.838;12.094;2023-03-01T07:50:23;1.60;44.70
18287;DHT22;9269;50.838;12.094;2023-03-01T07:52:51;1.30;44.60
18287;DHT22;9269;50.838;12.094;2023-03-01T07:55:20;1.60;44.90
18287;DHT22;9269;50.838;12.094;2023-03-01T07:57:48;1.60;44.80
18287;DHT22;9269;50.838;12.094;2023-03-01T08:00:17;1.70;44.60
18287;DHT22;9269;50.838;12.094;2023-03-01T08:02:47;1.80;44.40
18287;DHT22;9269;50.838;12.094;2023-03-01T08:05:16;1.70;44.50
18287;DHT22;9269;50.838;12.094;2023-03-01T08:07:44;1.90;44.60
18287;DHT22;9269;50.838;12.094;2023-03-01T08:10:13;2.00;44.50
18287;DHT22;9269;50.838;12.094;2023-03-01T08:12:41;2.00;44.40
18287;DHT22;9269;50.838;12.094;2023-03-01T08:15:10;2.30;44.30
18287;DHT22;9269;50.838;12.094;2023-03-01T08:17:38;2.20;44.10
18287;DHT22;9269;50.838;12.094;2023-03-01T08:20:10;2.30;44.20
18287;DHT22;9269;50.838;12.094;2023-03-01T08:22:39;2.40;44.00
18287;DHT22;9269;50.838;12.094;2023-03-01T08:25:09;2.80;44.00
18287;DHT22;9269;50.838;12.094;2023-03-01T08:27:37;2.50;44.20
18287;DHT22;9269;50.838;12.094;2023-03-01T08:30:07;2.90;44.10
18287;DHT22;9269;50.838;12.094;2023-03-01T08:32:38;2.90;44.10
18287;DHT22;9269;50.838;12.094;2023-03-01T08:35:08;3.00;44.30
18287;DHT22;9269;50.838;12.094;2023-03-01T08:37:37;3.00;44.00
18287;DHT22;9269;50.838;12.094;2023-03-01T08:40:06;3.10;44.00
18287;DHT22;9269;50.838;12.094;2023-03-01T08:42:37;3.20;44.00
18287;DHT22;9269;50.838;12.094;2023-03-01T08:45:06;3.30;44.10
18287;DHT22;9269;50.838;12.094;2023-03-01T08:47:35;3.50;43.90
18287;DHT22;9269;50.838;12.094;2023-03-01T08:50:04;3.50;43.90
18287;DHT22;9269;50.838;12.094;2023-03-01T08:52:34;3.70;44.00
18287;DHT22;9269;50.838;12.094;2023-03-01T08:55:03;3.80;43.90
18287;DHT22;9269;50.838;12.094;2023-03-01T08:57:31;3.80;43.70
18287;DHT22;9269;50.838;12.094;2023-03-01T09:00:00;3.90;43.40
18287;DHT22;9269;50.838;12.094;2023-03-01T09:02:28;4.00;43.10
18287;DHT22;9269;50.838;12.094;2023-03-01T09:04:57;4.10;43.10
18287;DHT22;9269;50.838;12.094;2023-03-01T09:07:26;4.20;43.60
18287;DHT22;9269;50.838;12.094;2023-03-01T09:09:57;4.40;42.90
18287;DHT22;9269;50.838;12.094;2023-03-01T09:12:25;4.50;42.80
18287;DHT22;9269;50.838;12.094;2023-03-01T09:14:54;4.60;43.20
18287;DHT22;9269;50.838;12.094;2023-03-01T09:17:22;4.50;42.90
18287;DHT22;9269;50.838;12.094;2023-03-01T09:19:50;4.80;42.90
18287;DHT22;9269;50.838;12.094;2023-03-01T09:22:19;4.80;42.80
18287;DHT22;9269;50.838;12.094;2023-03-01T09:24:47;4.70;42.20
18287;DHT22;9269;50.838;12.094;2023-03-01T09:27:17;5.00;42.20
18287;DHT22;9269;50.838;12.094;2023-03-01T09:29:46;5.10;41.90
18287;DHT22;9269;50.838;12.094;2023-03-01T09:32:14;5.20;41.80
18287;DHT22;9269;50.838;12.094;2023-03-01T09:34:43;5.10;41.80
18287;DHT22;9269;50.838;12.094;2023-03-01T09:37:32;5.10;41.80
18287;DHT22;9269;50.838;12.094;2023-03-01T09:40:01;5.30;42.10
18287;DHT22;9269;50.838;12.094;2023-03-01T09:42:34;5.50;41.50
18287;DHT22;9269;50.838;12.094;2023-03-01T09:45:11;5.70;41.50
18287;DHT22;9269;50.838;12.094;2023-03-01T09:47:43;5.60;41.30
18287;DHT22;9269;50.838;12.094;2023-03-01T09:50:13;5.60;40.50
18287;DHT22;9269;50.838;12.094;2023-03-01T09:52:47;5.80;40.90
18287;DHT22;9269;50.838;12.094;2023-03-01T09:55:26;5.80;40.70
18287;DHT22;9269;50.838;12.094;2023-03-01T09:58:04;5.80;40.90
18287;DHT22;9269;50.838;12.094;2023-03-01T10:00:39;5.90;40.90
18287;DHT22;9269;50.838;12.094;2023-03-01T10:03:14;5.90;40.90
18287;DHT22;9269;50.838;12.094;2023-03-01T10:05:53;6.00;40.70
18287;DHT22;9269;50.838;12.094;2023-03-01T10:08:38;6.00;40.50
18287;DHT22;9269;50.838;12.094;2023-03-01T10:11:19;6.10;40.30
18287;DHT22;9269;50.838;12.094;2023-03-01T10:13:56;6.30;40.50
18287;DHT22;9269;50.838;12.094;2023-03-01T10:16:32;6.40;40.50
18287;DHT22;9269;50.838;12.094;2023-03-01T10:19:05;6.40;40.80
18287;DHT22;9269;50.838;12.094;2023-03-01T10:21:40;6.50;40.90
18287;DHT22;9269;50.838;12.094;2023-03-01T10:24:12;6.60;39.60
18287;DHT22;9269;50.838;12.094;2023-03-01T10:26:48;6.70;39.40
18287;DHT22;9269;50.838;12.094;2023-03-01T10:29:23;6.70;39.80
18287;DHT22;9269;50.838;12.094;2023-03-01T10:31:54;6.70;39.50
18287;DHT22;9269;50.838;12.094;2023-03-01T10:34:28;6.80;39.60
18287;DHT22;9269;50.838;12.094;2023-03-01T10:37:00;6.60;39.00
18287;DHT22;9269;50.838;12.094;2023-03-01T10:39:29;6.90;39.40
18287;DHT22;9269;50.838;12.094;2023-03-01T10:42:01;6.90;39.50
18287;DHT22;9269;50.838;12.094;2023-03-01T10:44:45;6.90;39.00
18287;DHT22;9269;50.838;12.094;2023-03-01T10:47:18;7.00;38.70
18287;DHT22;9269;50.838;12.094;2023-03-01T10:49:59;7.00;39.10
18287;DHT22;9269;50.838;12.094;2023-03-01T10:52:31;6.90;39.30
18287;DHT22;9269;50.838;12.094;2023-03-01T10:55:03;7.00;39.40
18287;DHT22;9269;50.838;12.094;2023-03-01T10:57:35;7.10;39.20
18287;DHT22;9269;50.838;12.094;2023-03-01T11:00:20;7.20;39.40
18287;DHT22;9269;50.838;12.094;2023-03-01T11:03:08;7.10;38.70
18287;DHT22;9269;50.838;12.094;2023-03-01T11:05:54;7.20;38.80
18287;DHT22;9269;50.838;12.094;2023-03-01T11:08:34;7.30;38.60
18287;DHT22;9269;50.838;12.094;2023-03-01T11:11:13;7.40;38.70
18287;DHT22;9269;50.838;12.094;2023-03-01T11:13:58;7.50;39.00
18287;DHT22;9269;50.838;12.094;2023-03-01T11:16:33;7.50;38.60
18287;DHT22;9269;50.838;12.094;2023-03-01T11:19:15;7.50;39.10
18287;DHT22;9269;50.838;12.094;2023-03-01T11:21:53;7.70;39.00
18287;DHT22;9269;50.838;12.094;2023-03-01T11:24:28;7.60;39.10
18287;DHT22;9269;50.838;12.094;2023-03-01T11:27:01;7.70;38.80
18287;DHT22;9269;50.838;12.094;2023-03-01T11:29:37;7.80;38.60
18287;DHT22;9269;50.838;12.094;2023-03-01T11:32:16;7.90;38.30
18287;DHT22;9269;50.838;12.094;2023-03-01T11:34:49;7.60;37.90
18287;DHT22;9269;50.838;12.094;2023-03-01T11:37:28;8.00;37.60
18287;DHT22;9269;50.838;12.094;2023-03-01T11:40:15;8.00;37.80
18287;DHT22;9269;50.838;12.094;2023-03-01T11:42:51;8.00;38.00
18287;DHT22;9269;50.838;12.094;2023-03-01T11:45:24;8.00;37.10
18287;DHT22;9269;50.838;12.094;2023-03-01T11:48:07;8.00;37.80
18287;DHT22;9269;50.838;12.094;2023-03-01T11:50:45;8.00;37.90
18287;DHT22;9269;50.838;12.094;2023-03-01T11:53:32;8.10;37.70
18287;DHT22;9269;50.838;12.094;2023-03-01T11:56:13;8.00;37.30
18287;DHT22;9269;50.838;12.094;2023-03-01T11:59:08;8.20;37.00
18287;DHT22;9269;50.838;12.094;2023-03-01T12:01:49;8.10;37.50
18287;DHT22;9269;50.838;12.094;2023-03-01T12:04:34;8.20;37.10
18287;DHT22;9269;50.838;12.094;2023-03-01T12:07:10;8.20;37.20
18287;DHT22;9269;50.838;12.094;2023-03-01T12:09:52;8.20;36.70
18287;DHT22;9269;50.838;12.094;2023-03-01T12:12:30;8.20;36.20
18287;DHT22;9269;50.838;12.094;2023-03-01T12:15:18;8.10;36.40
18287;DHT22;9269;50.838;12.094;2023-03-01T12:18:02;8.30;36.30
18287;DHT22;9269;50.838;12.094;2023-03-01T12:20:37;8.20;35.90
18287;DHT22;9269;50.838;12.094;2023-03-01T12:23:23;8.30;35.90
18287;DHT22;9269;50.838;12.094;2023-03-01T12:25:59;8.20;35.70
18287;DHT22;9269;50.838;12.094;2023-03-01T12:29:02;8.20;35.60
18287;DHT22;9269;50.838;12.094;2023-03-01T12:32:00;8.20;35.80
18287;DHT22;9269;50.838;12.094;2023-03-01T12:34:49;8.10;35.80
18287;DHT22;9269;50.838;12.094;2023-03-01T12:37:27;8.20;35.80
18287;DHT22;9269;50.838;12.094;2023-03-01T12:40:29;8.20;36.10
18287;DHT22;9269;50.838;12.094;2023-03-01T12:43:08;8.20;36.10
18287;DHT22;9269;50.838;12.094;2023-03-01T12:45:50;8.30;36.30
18287;DHT22;9269;50.838;12.094;2023-03-01T12:48:37;8.40;36.30
18287;DHT22;9269;50.838;12.094;2023-03-01T12:51:10;8.40;35.70
18287;DHT22;9269;50.838;12.094;2023-03-01T12:53:45;8.50;35.80
18287;DHT22;9269;50.838;12.094;2023-03-01T12:56:18;8.60;35.20
18287;DHT22;9269;50.838;12.094;2023-03-01T12:58:54;8.50;35.10
18287;DHT22;9269;50.838;12.094;2023-03-01T13:01:34;8.60;35.30
18287;DHT22;9269;50.838;12.094;2023-03-01T13:04:15;8.60;35.20
18287;DHT22;9269;50.838;12.094;2023-03-01T13:06:54;8.40;35.40
18287;DHT22;9269;50.838;12.094;2023-03-01T13:09:30;8.60;35.00
18287;DHT22;9269;50.838;12.094;2023-03-01T13:12:00;8.60;35.10
18287;DHT22;9269;50.838;12.094;2023-03-01T13:14:36;8.60;35.00
18287;DHT22;9269;50.838;12.094;2023-03-01T13:17:39;8.50;34.80
18287;DHT22;9269;50.838;12.094;2023-03-01T13:20:13;8.60;34.50
18287;DHT22;9269;50.838;12.094;2023-03-01T13:22:43;8.50;34.40
18287;DHT22;9269;50.838;12.094;2023-03-01T13:25:22;8.60;34.40
18287;DHT22;9269;50.838;12.094;2023-03-01T13:31:06;8.60;35.20
18287;DHT22;9269;50.838;12.094;2023-03-01T13:33:41;8.60;34.40
18287;DHT22;9269;50.838;12.094;2023-03-01T13:36:46;8.50;34.70
18287;DHT22;9269;50.838;12.094;2023-03-01T13:39:29;8.60;34.90
18287;DHT22;9269;50.838;12.094;2023-03-01T13:42:01;8.60;34.90
18287;DHT22;9269;50.838;12.094;2023-03-01T13:44:32;8.50;34.90
18287;DHT22;9269;50.838;12.094;2023-03-01T13:47:13;8.60;34.50
18287;DHT22;9269;50.838;12.094;2023-03-01T13:49:43;8.60;34.60
18287;DHT22;9269;50.838;12.094;2023-03-01T13:52:37;8.60;34.60
18287;DHT22;9269;50.838;12.094;2023-03-01T13:55:18;8.60;34.10
18287;DHT22;9269;50.838;12.094;2023-03-01T13:57:50;8.60;33.50
18287;DHT22;9269;50.838;12.094;2023-03-01T14:00:27;8.50;33.40
18287;DHT22;9269;50.838;12.094;2023-03-01T14:03:10;8.50;33.50
18287;DHT22;9269;50.838;12.094;2023-03-01T14:05:40;8.60;33.20
18287;DHT22;9269;50.838;12.094;2023-03-01T14:08:21;8.60;32.80
18287;DHT22;9269;50.838;12.094;2023-03-01T14:10:58;8.60;33.00
18287;DHT22;9269;50.838;12.094;2023-03-01T14:13:42;8.50;32.70
18287;DHT22;9269;50.838;12.094;2023-03-01T14:16:31;8.40;32.50
18287;DHT22;9269;50.838;12.094;2023-03-01T14:19:14;8.40;32.40
18287;DHT22;9269;50.838;12.094;2023-03-01T14:22:04;8.40;33.10
18287;DHT22;9269;50.838;12.094;2023-03-01T14:24:39;8.40;33.00
18287;DHT22;9269;50.838;12.094;2023-03-01T14:27:11;8.40;33.30
18287;DHT22;9269;50.838;12.094;2023-03-01T14:29:41;8.40;33.70
18287;DHT22;9269;50.838;12.094;2023-03-01T14:32:19;8.50;33.70
18287;DHT22;9269;50.838;12.094;2023-03-01T14:34:49;8.30;33.20
18287;DHT22;9269;50.838;12.094;2023-03-01T14:37:21;8.40;33.30
18287;DHT22;9269;50.838;12.094;2023-03-01T14:39:51;8.30;33.80
18287;DHT22;9269;50.838;12.094;2023-03-01T14:42:21;8.30;33.50
18287;DHT22;9269;50.838;12.094;2023-03-01T14:44:53;8.30;33.80
18287;DHT22;9269;50.838;12.094;2023-03-01T14:47:26;8.20;34.10
18287;DHT22;9269;50.838;12.094;2023-03-01T14:49:59;8.20;34.20
18287;DHT22;9269;50.838;12.094;2023-03-01T15:00:50;7.90;34.80
18287;DHT22;9269;50.838;12.094;2023-03-01T15:03:24;8.00;34.40
18287;DHT22;9269;50.838;12.094;2023-03-01T15:05:53;7.70;35.00
18287;DHT22;9269;50.838;12.094;2023-03-01T15:08:24;7.80;34.90
18287;DHT22;9269;50.838;12.094;2023-03-01T15:10:58;7.80;34.80
18287;DHT22;9269;50.838;12.094;2023-03-01T15:13:30;7.70;35.10
18287;DHT22;9269;50.838;12.094;2023-03-01T15:16:11;7.80;35.00
18287;DHT22;9269;50.838;12.094;2023-03-01T15:18:53;7.70;34.50
18287;DHT22;9269;50.838;12.094;2023-03-01T15:21:25;7.70;34.80
18287;DHT22;9269;50.838;12.094;2023-03-01T15:23:56;7.60;35.40
18287;DHT22;9269;50.838;12.094;2023-03-01T15:26:29;7.50;35.20
18287;DHT22;9269;50.838;12.094;2023-03-01T15:28:59;7.50;35.30
18287;DHT22;9269;50.838;12.094;2023-03-01T15:31:32;7.40;35.70
18287;DHT22;9269;50.838;12.094;2023-03-01T15:34:11;7.30;35.60
18287;DHT22;9269;50.838;12.094;2023-03-01T15:36:48;7.40;35.80
18287;DHT22;9269;50.838;12.094;2023-03-01T15:39:30;7.30;36.00
18287;DHT22;9269;50.838;12.094;2023-03-01T15:42:00;7.30;35.90
18287;DHT22;9269;50.838;12.094;2023-03-01T15:44:31;7.10;36.00
18287;DHT22;9269;50.838;12.094;2023-03-01T15:47:25;7.10;35.90
18287;DHT22;9269;50.838;12.094;2023-03-01T15:49:55;7.00;36.20
18287;DHT22;9269;50.838;12.094;2023-03-01T15:52:27;7.00;36.30
18287;DHT22;9269;50.838;12.094;2023-03-01T15:54:58;7.00;36.30
18287;DHT22;9269;50.838;12.094;2023-03-01T15:57:27;6.90;36.60
18287;DHT22;9269;50.838;12.094;2023-03-01T15:59:56;6.80;36.50
18287;DHT22;9269;50.838;12.094;2023-03-01T16:02:25;6.90;36.60
18287;DHT22;9269;50.838;12.094;2023-03-01T16:04:54;6.80;36.50
18287;DHT22;9269;50.838;12.094;2023-03-01T16:07:23;6.80;37.10
18287;DHT22;9269;50.838;12.094;2023-03-01T16:09:54;6.70;36.70
18287;DHT22;9269;50.838;12.094;2023-03-01T16:12:23;6.80;36.80
18287;DHT22;9269;50.838;12.094;2023-03-01T16:14:52;6.60;37.30
18287;DHT22;9269;50.838;12.094;2023-03-01T16:17:21;6.60;37.10
18287;DHT22;9269;50.838;12.094;2023-03-01T16:19:50;6.60;37.00
18287;DHT22;9269;50.838;12.094;2023-03-01T16:22:19;6.40;37.10
18287;DHT22;9269;50.838;12.094;2023-03-01T16:24:52;6.50;37.30
18287;DHT22;9269;50.838;12.094;2023-03-01T16:27:20;6.40;37.50
18287;DHT22;9269;50.838;12.094;2023-03-01T16:29:48;6.30;37.40
18287;DHT22;9269;50.838;12.094;2023-03-01T16:32:17;6.30;37.50
18287;DHT22;9269;50.838;12.094;2023-03-01T16:34:46;6.40;37.40